« 定点 富山空港他 2024/2/17 sat | トップページ | 定点 富山空港他 2024/2/20 tue »

2024/02/18

定点 富山空港他 2024/2/18 sun

昨日に引き続き、本日も良い天気。おまけに暖かい。

RJNT 180100Z 35005KT 9999 FEW020 SCT080 12/05 Q1026

20240218_rjnt_00ja14aj

ブラザーズが一仕事終えて、補給中

20240218_rjnt_01ja06hd

こちらも久しぶりの報道機

20240218_rjnt_02ja64an

お天気が良すぎて、URUSIに向かうANA315が見えます。

20240218_rjnt_03ja91cp

こちらも、久しぶりのお客さん

20240218_rjnt_04ja91cp

JA91CP AW139 千葉県警察「かとり1号」

20240218_rjnt_05ja91cp

成田で良く見る機体です。

RJNT 180200Z 35005KT 310V040 9999 FEW020 14/06 Q1025

20240218_rjnt_06ja06hd

JA06HD S-76C AKF TBS報道

20240218_rjnt_07ja64an
20240218_rjnt_08ja64an
20240218_rjnt_09ja64an

ANA315 RJTT-RJNT JA64AN B737-881

20240218_rjnt_10ja06hd
20240218_rjnt_11ja06hd

JA06HD↑

20240218_rjnt_12ja91cp

富山県警察航空隊がアテンドしている時に

20240218_rjnt_13ja139t

JA139T↓ AW139 富山県警察「つるぎ」さん帰還

20240218_rjnt_14ja139t

給油しながら、物資を積み込んでいます。また出発するのかな

20240218_rjnt_15hl7622

お隣の国のデカイやつ

20240218_rjnt_16hl7622

KAL703 RKSI-RJAA HL7622 A380-861

20240218_rjnt_17ja64an
20240218_rjnt_18ja64an

ANA316 RJNT-RJTT JA64AN B737-881

RJNT 180300Z 36006KT 320V020 9999 FEW020 15/07 Q1024

20240218_rjnt_19ja139t

JA139T↑

20240218_rjnt_20ja82an
20240218_rjnt_21ja82an

ANA1182 RJCC-RJNT JA82AN B737-881

RJNT 180400Z 35006KT 320V030 9999 FEW020 16/07 Q1024

20240218_rjnt_22ja82an
20240218_rjnt_23ja82an

ANA1181 RJNT-RJCC JA82AN B737-881

20240218_rjnt_24ja139t

JA139T↓

20240218_rjnt_25ja06hd

JA06HD↓

20240218_rjnt_26b308x

ブルースカイでクロス

CES5079 ZSQD-RJAA B-308X A320-251N FL350

20240218_rjnt_27b18665

CAL7510 RCTP-RJSC B-18665 B737-8AL FL330

20240218_rjnt_28ja13aj

JA13AJ C208 ASK

20240218_rjnt_29ja91cp

JA91CP↑

20240218_rjnt_30ja91cp

この後、JA06HDさんが14時半過ぎに出発されました。

「かとり」さんは、金沢、能登と廻って帰ってきました。

さて、転戦して【富山新港】

RJNT 180600Z 36007KT 9999 FEW020 18/06 Q1023

20240218_ytos_31msc606

七尾に支援に入った掃海艇が富山新港に帰ってきました。

20240218_ytos_32nagokaze

「なごかぜ」

しばらく庄川で見ないと思ったら、ここにいたのね

20240218_ytos_33msc606

MSC606「はつしま」第44掃海隊(舞鶴)

20240218_ytos_34msc606

新湊観光船の「万葉丸」が通過

20240218_ytos_35koshinokata

県営渡船「こしのかた」 運航に入らない時は、ここにいるのね

定例の難破船【岩瀬浜】

20240218_ziwase_36dongyu

暖かい日和に誘われて、結構人が出ています。その間を漂流物を回収する作業員の方が

20240218_ziwase_37dongyu
20240218_ziwase_38dongyu
20240218_ziwase_39dongyu

毎日、こんな穏やかな日だといいのですが・・・

 

 

 

|

« 定点 富山空港他 2024/2/17 sat | トップページ | 定点 富山空港他 2024/2/20 tue »

うみ」カテゴリの記事

富山空港」カテゴリの記事

海上自衛隊」カテゴリの記事

コメント

コメントを書く



(ウェブ上には掲載しません)


コメントは記事投稿者が公開するまで表示されません。



« 定点 富山空港他 2024/2/17 sat | トップページ | 定点 富山空港他 2024/2/20 tue »